Whittlesey, United Kingdom
Current Conditions -  °F | °C
As of 12:50 AM on Sunday 23 Nov 2014 (Local Time) from EGXT Reporting Station
Haze Haze  
Wind Chill: 50°   Ceiling: 9000
Heat Index: 50°   Visibility: 4mi
Dew Point: 50°   Wind: 8mph
Humidity: 100%   Direction: 290°WNW
Pressure: 29.97"   Gusts: NA
Location:  52.56°N, 0.13°W
Report Text: EGXT 230050Z AUTO 29007KT 7000 BR BKN090/// BKN140/// 10/10 Q1015
Loading
Personal Weather Stations






























Interactive Weather Map New forecast layout! Learn more

10-Day Weather Forecast

Advertisements
Track Severe Weather on mobile